createdAt,value
2022-10-20T00:01:38.989Z,101375.97
2022-10-20T00:04:05.394Z,101363.50
2022-10-20T00:06:33.205Z,101368.88
2022-10-20T00:09:01.906Z,101360.84
2022-10-20T00:11:29.067Z,101363.69
2022-10-20T00:13:56.889Z,101361.84
2022-10-20T00:16:25.112Z,101361.00
2022-10-20T00:18:52.174Z,101354.75
2022-10-20T00:21:21.842Z,101351.09
2022-10-20T00:23:48.446Z,101354.63
2022-10-20T00:26:24.228Z,101342.91
2022-10-20T00:28:51.193Z,101340.38
2022-10-20T00:31:19.628Z,101352.78
2022-10-20T00:33:46.843Z,101337.69
2022-10-20T00:36:16.015Z,101329.47
2022-10-20T00:38:43.031Z,101325.13
2022-10-20T00:41:15.459Z,101313.38
2022-10-20T00:43:49.482Z,101312.72
2022-10-20T00:46:19.650Z,101315.38
2022-10-20T00:48:50.014Z,101315.38
2022-10-20T00:51:20.026Z,101310.03
2022-10-20T00:53:48.711Z,101299.44
2022-10-20T00:56:15.246Z,101298.59
2022-10-20T00:58:43.147Z,101299.56
2022-10-20T01:01:12.262Z,101293.34
2022-10-20T01:03:46.621Z,101289.81
2022-10-20T01:06:18.535Z,101289.13
2022-10-20T01:08:45.109Z,101286.44
2022-10-20T01:11:45.236Z,101290.97
2022-10-20T01:14:36.416Z,101290.13
2022-10-20T01:17:09.873Z,101270.63
2022-10-20T01:20:20.739Z,101283.31
2022-10-20T01:23:02.338Z,101279.94
2022-10-20T01:25:56.637Z,101284.63
2022-10-20T01:28:26.767Z,101271.47
2022-10-20T01:31:01.411Z,101269.75
2022-10-20T01:33:41.772Z,101259.31
2022-10-20T01:36:15.818Z,101252.28
2022-10-20T01:38:53.446Z,101248.03
2022-10-20T01:41:42.831Z,101239.13
2022-10-20T01:44:14.479Z,101231.22
2022-10-20T01:46:43.053Z,101222.59
2022-10-20T01:49:10.827Z,101226.28
2022-10-20T01:51:37.215Z,101217.41
2022-10-20T01:54:03.680Z,101224.44
2022-10-20T01:56:42.624Z,101224.59
2022-10-20T01:59:27.875Z,101217.41
2022-10-20T02:02:15.963Z,101215.56
2022-10-20T02:04:58.663Z,101213.88
2022-10-20T02:07:29.210Z,101208.53
2022-10-20T02:10:19.026Z,101193.41
2022-10-20T02:12:50.366Z,101207.69
2022-10-20T02:15:24.101Z,101208.66
2022-10-20T02:17:58.746Z,101210.50
2022-10-20T02:20:26.265Z,101206.97
2022-10-20T02:22:53.998Z,101193.56
2022-10-20T02:25:21.890Z,101192.72
2022-10-20T02:27:49.045Z,101193.56
2022-10-20T02:30:18.404Z,101198.09
2022-10-20T02:32:52.580Z,101198.94
2022-10-20T02:35:29.210Z,101199.78
2022-10-20T02:37:56.771Z,101210.63
2022-10-20T02:40:23.124Z,101202.56
2022-10-20T02:42:49.723Z,101197.22
2022-10-20T02:45:16.198Z,101187.38
2022-10-20T02:47:42.990Z,101182.97
2022-10-20T02:50:09.692Z,101174.94
2022-10-20T02:52:36.676Z,101166.19
2022-10-20T02:55:04.664Z,101159.84
2022-10-20T02:57:31.186Z,101150.09
2022-10-20T02:59:57.510Z,101148.41
2022-10-20T03:02:23.922Z,101143.06
2022-10-20T03:04:50.258Z,101136.84
2022-10-20T03:07:16.686Z,101131.50
2022-10-20T03:09:44.125Z,101123.47
2022-10-20T03:12:10.439Z,101108.22
2022-10-20T03:14:36.818Z,101103.69
2022-10-20T03:17:03.174Z,101100.88
2022-10-20T03:19:29.599Z,101090.88
2022-10-20T03:21:55.918Z,101096.22
2022-10-20T03:24:22.242Z,101099.59
2022-10-20T03:26:48.610Z,101096.78
2022-10-20T03:29:14.942Z,101091.13
2022-10-20T03:31:41.424Z,101089.13
2022-10-20T03:34:08.063Z,101090.81
2022-10-20T03:36:34.424Z,101091.66
2022-10-20T03:39:00.733Z,101087.00
2022-10-20T03:41:27.069Z,101089.69
2022-10-20T03:43:53.524Z,101090.53
2022-10-20T03:46:19.867Z,101085.16
2022-10-20T03:48:46.175Z,101075.31
2022-10-20T03:51:14.289Z,101081.50
2022-10-20T03:53:40.662Z,101072.47
2022-10-20T03:56:08.753Z,101072.47
2022-10-20T03:58:35.741Z,101059.06
2022-10-20T04:01:03.167Z,101067.94
2022-10-20T04:03:29.507Z,101069.66
2022-10-20T04:05:55.843Z,101064.28
2022-10-20T04:08:22.192Z,101067.09
2022-10-20T04:10:48.514Z,101051.84
2022-10-20T04:13:14.834Z,101050.16
2022-10-20T04:15:41.243Z,101045.66
2022-10-20T04:18:07.568Z,101044.69
2022-10-20T04:20:33.909Z,101031.25
2022-10-20T04:23:00.326Z,101025.91
2022-10-20T04:25:26.689Z,101022.34
2022-10-20T04:27:53.030Z,101022.22
2022-10-20T04:30:19.440Z,101008.81
2022-10-20T04:32:45.763Z,101011.34
2022-10-20T04:35:12.157Z,101006.00
2022-10-20T04:37:38.780Z,100997.81
2022-10-20T04:40:06.199Z,101003.03
2022-10-20T04:42:32.511Z,101003.88
2022-10-20T04:44:58.867Z,100992.03
2022-10-20T04:47:25.295Z,100984.81
2022-10-20T04:49:51.636Z,100982.00
2022-10-20T04:52:18.230Z,100977.47
2022-10-20T04:54:44.589Z,100963.88
2022-10-20T04:57:11.159Z,100967.44
2022-10-20T04:59:37.477Z,100960.22
2022-10-20T05:02:03.883Z,100968.13
2022-10-20T05:04:30.266Z,100960.06
2022-10-20T05:06:56.611Z,100966.31
2022-10-20T05:09:23.054Z,100958.09
2022-10-20T05:11:49.391Z,100952.72
2022-10-20T05:14:15.715Z,100958.94
2022-10-20T05:16:42.117Z,100949.06
2022-10-20T05:19:10.414Z,100945.38
2022-10-20T05:21:37.118Z,100946.22
2022-10-20T05:24:05.517Z,100934.50
2022-10-20T05:26:36.912Z,100933.50
2022-10-20T05:29:05.873Z,100926.47
2022-10-20T05:31:40.128Z,100928.13
2022-10-20T05:34:07.166Z,100923.78
2022-10-20T05:36:33.598Z,100922.06
2022-10-20T05:39:00.179Z,100913.19
2022-10-20T05:41:29.796Z,100908.66
2022-10-20T05:44:00.754Z,100908.66
2022-10-20T05:46:29.275Z,100908.66
2022-10-20T05:48:58.983Z,100911.22
2022-10-20T05:51:27.917Z,100908.53
2022-10-20T05:53:58.890Z,100900.31
2022-10-20T05:56:26.967Z,100882.53
2022-10-20T05:58:53.822Z,100879.88
2022-10-20T06:01:23.993Z,100881.53
2022-10-20T06:03:55.674Z,100878.72
2022-10-20T06:06:25.374Z,100881.22
2022-10-20T06:08:52.259Z,100879.25
2022-10-20T06:11:19.402Z,100869.06
2022-10-20T06:13:48.484Z,100858.16
2022-10-20T06:16:21.303Z,100854.19
2022-10-20T06:18:48.071Z,100834.41
2022-10-20T06:21:20.072Z,100838.47
2022-10-20T06:23:46.419Z,100841.00
2022-10-20T06:26:17.557Z,100850.56
2022-10-20T06:28:45.523Z,100857.31
2022-10-20T06:31:14.321Z,100857.00
2022-10-20T06:33:41.103Z,100849.66
2022-10-20T06:36:08.805Z,100855.41
2022-10-20T06:38:35.523Z,100857.78
2022-10-20T06:41:06.532Z,100853.63
2022-10-20T06:43:33.252Z,100849.78
2022-10-20T06:46:01.844Z,100847.47
2022-10-20T06:48:29.063Z,100847.16
2022-10-20T06:51:00.422Z,100845.69
2022-10-20T06:53:29.286Z,100849.56
2022-10-20T06:56:08.076Z,100852.63
2022-10-20T07:01:37.171Z,100853.22
2022-10-20T07:04:07.393Z,100842.00
2022-10-20T07:06:45.135Z,100847.56
2022-10-20T07:09:15.019Z,100840.72
2022-10-20T07:11:41.838Z,100834.72
2022-10-20T07:14:10.203Z,100830.53
2022-10-20T07:16:36.718Z,100833.41
2022-10-20T07:19:04.457Z,100831.91
2022-10-20T07:21:35.666Z,100837.50
2022-10-20T07:24:06.537Z,100837.72
2022-10-20T07:26:35.758Z,100840.59
2022-10-20T07:29:12.939Z,100838.09
2022-10-20T07:31:47.389Z,100831.06
2022-10-20T07:34:31.741Z,100819.81
2022-10-20T07:36:58.298Z,100815.47
2022-10-20T07:39:30.689Z,100821.03
2022-10-20T07:41:57.034Z,100830.28
2022-10-20T07:44:24.162Z,100835.00
2022-10-20T07:46:50.549Z,100839.72
2022-10-20T07:52:03.339Z,100839.72
2022-10-20T07:54:30.421Z,100841.91
2022-10-20T07:56:56.762Z,100853.03
2022-10-20T07:59:24.289Z,100840.06
2022-10-20T08:01:52.577Z,100829.63
2022-10-20T08:04:21.052Z,100840.94
2022-10-20T08:06:47.412Z,100836.03
2022-10-20T08:09:13.775Z,100836.38
2022-10-20T08:11:40.120Z,100834.00
2022-10-20T08:14:06.640Z,100828.78
2022-10-20T08:16:48.122Z,100818.31
2022-10-20T08:19:23.060Z,100812.91
2022-10-20T08:21:49.415Z,100811.22
2022-10-20T08:24:15.910Z,100803.34
2022-10-20T08:26:42.253Z,100804.31
2022-10-20T08:29:09.057Z,100799.25
2022-10-20T08:31:35.431Z,100797.53
2022-10-20T08:34:01.931Z,100793.16
2022-10-20T08:36:28.452Z,100793.28
2022-10-20T08:38:56.319Z,100798.00
2022-10-20T08:41:34.517Z,100795.06
2022-10-20T08:44:03.720Z,100789.81
2022-10-20T08:46:38.118Z,100787.22
2022-10-20T08:49:07.691Z,100795.47
2022-10-20T08:51:39.333Z,100799.97
2022-10-20T08:54:12.665Z,100798.22
2022-10-20T08:56:39.020Z,100791.31
2022-10-20T08:59:22.491Z,100783.97
2022-10-20T09:01:48.907Z,100773.50
2022-10-20T09:04:18.306Z,100776.13
2022-10-20T09:06:47.913Z,100774.56
2022-10-20T09:09:17.874Z,100768.94
2022-10-20T09:11:44.482Z,100765.50
2022-10-20T09:14:12.236Z,100759.56
2022-10-20T09:16:58.670Z,100752.41
2022-10-20T09:19:27.124Z,100764.97
2022-10-20T09:21:56.028Z,100746.19
2022-10-20T09:24:24.243Z,100739.22
2022-10-20T09:26:59.301Z,100725.81
2022-10-20T09:29:37.770Z,100730.91
2022-10-20T09:32:44.938Z,100714.81
2022-10-20T09:35:12.086Z,100721.78
2022-10-20T09:37:38.704Z,100729.81
2022-10-20T09:40:15.199Z,100717.03
2022-10-20T09:42:49.183Z,100721.28
2022-10-20T09:45:15.448Z,100713.06
2022-10-20T09:47:48.513Z,100713.63
2022-10-20T09:50:28.971Z,100714.97
2022-10-20T09:52:56.418Z,100713.84
2022-10-20T09:55:25.678Z,100716.25
2022-10-20T09:57:54.278Z,100709.47
2022-10-20T10:00:45.986Z,100716.91
2022-10-20T10:03:22.593Z,100709.25
2022-10-20T10:06:00.125Z,100713.13
2022-10-20T10:08:30.370Z,100707.38
2022-10-20T10:11:03.224Z,100691.63
2022-10-20T10:13:43.484Z,100694.84
2022-10-20T10:16:14.106Z,100681.56
2022-10-20T10:18:46.859Z,100674.75
2022-10-20T10:21:17.342Z,100680.22
2022-10-20T10:23:53.658Z,100670.50
2022-10-20T10:26:33.635Z,100663.66
2022-10-20T10:28:59.992Z,100662.41
2022-10-20T10:31:27.316Z,100658.69
2022-10-20T10:34:02.475Z,100649.13
2022-10-20T10:36:34.420Z,100639.13
2022-10-20T10:39:04.338Z,100652.34
2022-10-20T10:41:47.112Z,100643.16
2022-10-20T10:44:29.236Z,100638.38
2022-10-20T10:47:16.946Z,100639.22
2022-10-20T10:49:52.460Z,100637.31
2022-10-20T10:52:29.518Z,100631.91
2022-10-20T10:55:43.754Z,100622.91
2022-10-20T10:58:27.509Z,100616.66
2022-10-20T11:01:18.718Z,100617.44
2022-10-20T11:04:29.602Z,100616.00
2022-10-20T11:07:14.132Z,100621.00
2022-10-20T11:09:52.618Z,100618.28
2022-10-20T11:12:40.865Z,100626.44
2022-10-20T11:15:28.898Z,100621.63
2022-10-20T11:18:32.774Z,100609.50
2022-10-20T11:21:21.747Z,100612.00
2022-10-20T11:24:03.274Z,100609.91
2022-10-20T11:26:34.877Z,100613.69
2022-10-20T11:29:04.763Z,100618.91
2022-10-20T11:31:57.277Z,100618.50
2022-10-20T11:35:01.512Z,100603.66
2022-10-20T11:37:41.641Z,100610.75
2022-10-20T11:40:11.210Z,100613.03
2022-10-20T11:42:43.499Z,100598.38
2022-10-20T11:45:35.597Z,100596.94
2022-10-20T11:48:11.275Z,100617.41
2022-10-20T11:50:39.018Z,100609.06
2022-10-20T11:53:29.551Z,100622.25
2022-10-20T11:56:27.155Z,100619.91
2022-10-20T11:59:02.706Z,100619.91
2022-10-20T12:01:41.485Z,100618.22
2022-10-20T12:04:37.921Z,100624.09
2022-10-20T12:07:28.926Z,100612.16
2022-10-20T12:10:14.146Z,100609.00
2022-10-20T12:13:14.855Z,100614.88
2022-10-20T12:15:52.786Z,100612.16
2022-10-20T12:18:25.124Z,100609.84
2022-10-20T12:20:59.773Z,100614.66
2022-10-20T12:23:49.278Z,100603.38
2022-10-20T12:26:32.939Z,100605.69
2022-10-20T12:29:31.083Z,100598.19
2022-10-20T12:32:24.319Z,100596.94
2022-10-20T12:35:10.914Z,100586.69
2022-10-20T12:37:42.108Z,100583.97
2022-10-20T12:40:14.048Z,100578.97
2022-10-20T12:42:47.901Z,100573.13
2022-10-20T12:45:20.450Z,100567.50
2022-10-20T12:47:50.860Z,100579.84
2022-10-20T12:50:38.087Z,100562.31
2022-10-20T12:53:18.647Z,100583.84
2022-10-20T12:55:53.503Z,100589.06
2022-10-20T12:58:19.785Z,100564.41
2022-10-20T13:00:46.100Z,100568.00
2022-10-20T13:03:31.363Z,100593.88
2022-10-20T13:06:02.415Z,100581.16
2022-10-20T13:08:35.134Z,100588.25
2022-10-20T13:11:35.848Z,100589.91
2022-10-20T13:14:28.360Z,100584.06
2022-10-20T13:17:05.988Z,100589.09
2022-10-20T13:19:50.018Z,100581.16
2022-10-20T13:22:40.827Z,100579.69
2022-10-20T13:25:16.846Z,100593.69
2022-10-20T13:27:43.401Z,100583.66
2022-10-20T13:30:10.930Z,100594.09
2022-10-20T13:36:08.078Z,100593.84
2022-10-20T13:38:52.930Z,100597.81
2022-10-20T13:41:38.456Z,100604.50
2022-10-20T13:44:23.251Z,100607.41
2022-10-20T13:46:50.767Z,100606.16
2022-10-20T13:49:55.290Z,100609.06
2022-10-20T13:52:21.898Z,100607.81
2022-10-20T13:55:03.414Z,100609.91
2022-10-20T13:57:33.433Z,100606.53
2022-10-20T14:00:04.356Z,100599.84
2022-10-20T14:02:34.417Z,100586.69
2022-10-20T14:05:07.918Z,100577.97
2022-10-20T14:07:42.837Z,100568.53
2022-10-20T14:10:32.942Z,100560.81
2022-10-20T14:13:01.219Z,100560.59
2022-10-20T14:15:31.910Z,100576.47
2022-10-20T14:18:04.901Z,100585.22
2022-10-20T14:20:33.939Z,100577.69
2022-10-20T14:23:02.153Z,100577.25
2022-10-20T14:25:31.478Z,100583.06
2022-10-20T14:27:59.158Z,100578.28
2022-10-20T14:30:26.555Z,100565.13
2022-10-20T14:32:54.351Z,100554.47
2022-10-20T14:35:39.200Z,100555.53
2022-10-20T14:38:15.526Z,100555.09
2022-10-20T14:40:48.586Z,100566.16
2022-10-20T14:43:18.400Z,100550.91
2022-10-20T14:46:03.404Z,100560.91
2022-10-20T14:48:37.999Z,100564.47
2022-10-20T14:51:32.203Z,100560.91
2022-10-20T14:54:20.584Z,100565.28
2022-10-20T14:56:55.839Z,100561.56
2022-10-20T14:59:24.860Z,100560.50
2022-10-20T15:02:01.755Z,100557.19
2022-10-20T15:04:32.126Z,100537.16
2022-10-20T15:07:25.457Z,100538.44
2022-10-20T15:10:06.007Z,100548.69
2022-10-20T15:12:42.756Z,100534.91
2022-10-20T15:15:12.146Z,100534.72
2022-10-20T15:17:51.760Z,100535.53
2022-10-20T15:20:30.453Z,100535.53
2022-10-20T15:22:58.376Z,100533.03
2022-10-20T15:25:26.863Z,100525.13
2022-10-20T15:27:54.890Z,100517.16
2022-10-20T15:30:23.570Z,100500.06
2022-10-20T15:32:50.454Z,100507.56
2022-10-20T15:35:20.196Z,100510.09
2022-10-20T15:37:52.579Z,100508.44
2022-10-20T15:40:21.291Z,100509.25
2022-10-20T15:42:48.716Z,100500.31
2022-10-20T15:45:21.317Z,100499.25
2022-10-20T15:47:48.330Z,100503.00
2022-10-20T15:50:15.471Z,100513.84
2022-10-20T15:52:42.378Z,100506.56
2022-10-20T15:55:22.662Z,100499.25
2022-10-20T15:57:53.553Z,100497.38
2022-10-20T16:00:22.103Z,100492.78
2022-10-20T16:02:49.684Z,100491.31
2022-10-20T16:05:17.840Z,100490.47
2022-10-20T16:07:44.196Z,100482.34
2022-10-20T16:10:12.141Z,100480.47
2022-10-20T16:12:39.956Z,100467.97
2022-10-20T16:15:08.159Z,100477.16
2022-10-20T16:17:35.457Z,100469.41
2022-10-20T16:20:01.970Z,100462.75
2022-10-20T16:22:28.739Z,100462.31
2022-10-20T16:24:56.156Z,100474.59
2022-10-20T16:27:22.946Z,100481.47
2022-10-20T16:29:52.557Z,100476.69
2022-10-20T16:32:18.941Z,100471.22
2022-10-20T16:34:45.341Z,100485.34
2022-10-20T16:37:11.857Z,100479.09
2022-10-20T16:39:38.203Z,100475.28
2022-10-20T16:42:04.564Z,100466.97
2022-10-20T16:44:31.154Z,100470.28
2022-10-20T16:46:57.916Z,100462.75
2022-10-20T16:49:24.438Z,100464.41
2022-10-20T16:51:51.964Z,100475.00
2022-10-20T16:54:18.749Z,100481.84
2022-10-20T16:56:48.953Z,100483.28
2022-10-20T16:59:15.342Z,100481.19
2022-10-20T17:01:41.671Z,100477.22
2022-10-20T17:04:08.004Z,100467.81
2022-10-20T17:06:34.361Z,100466.34
2022-10-20T17:09:00.785Z,100471.31
2022-10-20T17:11:29.885Z,100482.16
2022-10-20T17:13:57.130Z,100465.44
2022-10-20T17:16:31.963Z,100473.78
2022-10-20T17:18:59.797Z,100457.09
2022-10-20T17:21:27.643Z,100466.25
2022-10-20T17:23:54.029Z,100455.63
2022-10-20T17:26:23.911Z,100464.78
2022-10-20T17:28:50.951Z,100459.78
2022-10-20T17:31:18.250Z,100470.78
2022-10-20T17:33:45.074Z,100468.28
2022-10-20T17:36:12.723Z,100471.19
2022-10-20T17:38:41.248Z,100460.78
2022-10-20T17:41:15.810Z,100468.25
2022-10-20T17:43:42.323Z,100458.00
2022-10-20T17:46:12.398Z,100452.81
2022-10-20T17:48:39.697Z,100453.41
2022-10-20T17:51:12.619Z,100454.63
2022-10-20T17:53:45.060Z,100458.78
2022-10-20T17:56:17.008Z,100458.09
2022-10-20T17:58:45.566Z,100451.41
2022-10-20T18:01:18.612Z,100449.09
2022-10-20T18:03:46.966Z,100448.84
2022-10-20T18:06:21.723Z,100467.13
2022-10-20T18:08:48.719Z,100455.03
2022-10-20T18:11:17.988Z,100460.84
2022-10-20T18:13:45.286Z,100458.50
2022-10-20T18:16:15.027Z,100460.78
2022-10-20T18:18:41.713Z,100448.69
2022-10-20T18:21:11.539Z,100454.28
2022-10-20T18:23:38.472Z,100453.84
2022-10-20T18:26:10.873Z,100448.63
2022-10-20T18:28:43.087Z,100450.25
2022-10-20T18:31:14.352Z,100451.47
2022-10-20T18:33:41.793Z,100444.56
2022-10-20T18:36:10.929Z,100443.09
2022-10-20T18:38:39.362Z,100443.50
2022-10-20T18:41:08.738Z,100461.75
2022-10-20T18:43:35.550Z,100452.16
2022-10-20T18:46:03.581Z,100448.81
2022-10-20T18:48:30.976Z,100453.56
2022-10-20T18:50:59.940Z,100460.00
2022-10-20T18:53:33.520Z,100457.50
2022-10-20T18:56:09.174Z,100456.66
2022-10-20T18:58:41.614Z,100462.28
2022-10-20T19:01:11.236Z,100450.81
2022-10-20T19:03:38.878Z,100446.47
2022-10-20T19:06:08.734Z,100443.75
2022-10-20T19:08:37.310Z,100435.81
2022-10-20T19:11:09.872Z,100433.97
2022-10-20T19:13:36.674Z,100431.66
2022-10-20T19:16:10.851Z,100424.19
2022-10-20T19:18:40.408Z,100424.59
2022-10-20T19:21:08.128Z,100416.47
2022-10-20T19:23:38.130Z,100422.91
2022-10-20T19:26:06.324Z,100413.13
2022-10-20T19:28:34.858Z,100409.59
2022-10-20T19:31:01.908Z,100411.44
2022-10-20T19:33:28.948Z,100418.72
2022-10-20T19:35:55.387Z,100416.22
2022-10-20T19:38:21.772Z,100407.47
2022-10-20T19:40:48.329Z,100396.66
2022-10-20T19:43:14.714Z,100391.44
2022-10-20T19:45:41.067Z,100391.66
2022-10-20T19:48:07.532Z,100393.72
2022-10-20T19:53:03.883Z,100400.31
2022-10-20T19:55:30.890Z,100391.56
2022-10-20T19:57:57.447Z,100385.34
2022-10-20T20:00:23.790Z,100388.22
2022-10-20T20:02:50.163Z,100381.16
2022-10-20T20:05:16.908Z,100370.53
2022-10-20T20:07:43.397Z,100371.59
2022-10-20T20:10:10.365Z,100379.69
2022-10-20T20:12:36.897Z,100378.03
2022-10-20T20:15:03.658Z,100388.81
2022-10-20T20:17:30.204Z,100392.34
2022-10-20T20:19:56.715Z,100386.13
2022-10-20T20:22:23.138Z,100373.63
2022-10-20T20:24:49.578Z,100383.59
2022-10-20T20:27:16.134Z,100381.94
2022-10-20T20:29:42.543Z,100380.25
2022-10-20T20:32:08.962Z,100365.09
2022-10-20T20:34:35.514Z,100369.84
2022-10-20T20:37:01.941Z,100363.78
2022-10-20T20:39:28.355Z,100360.25
2022-10-20T20:41:54.915Z,100359.59
2022-10-20T20:44:21.393Z,100354.41
2022-10-20T20:46:47.932Z,100359.00
2022-10-20T20:49:14.486Z,100351.91
2022-10-20T20:51:40.942Z,100350.22
2022-10-20T20:54:08.810Z,100344.81
2022-10-20T20:56:35.262Z,100338.75
2022-10-20T20:59:03.215Z,100349.56
2022-10-20T21:01:31.864Z,100343.50
2022-10-20T21:04:01.711Z,100329.00
2022-10-20T21:06:33.831Z,100333.75
2022-10-20T21:09:11.590Z,100343.50
2022-10-20T21:11:40.840Z,100339.16
2022-10-20T21:14:07.273Z,100341.84
2022-10-20T21:16:36.734Z,100344.34
2022-10-20T21:19:06.167Z,100335.41
2022-10-20T21:21:35.190Z,100343.50
2022-10-20T21:24:03.126Z,100338.13
2022-10-20T21:26:30.210Z,100344.34
2022-10-20T21:28:57.165Z,100345.19
2022-10-20T21:31:26.586Z,100350.38
2022-10-20T21:33:56.066Z,100350.22
2022-10-20T21:36:23.581Z,100349.38
2022-10-20T21:38:52.318Z,100349.19
2022-10-20T21:41:24.010Z,100355.25
2022-10-20T21:43:56.234Z,100355.25
2022-10-20T21:46:32.871Z,100354.41
2022-10-20T21:49:12.299Z,100358.59
2022-10-20T21:51:43.809Z,100354.22
2022-10-20T21:54:16.560Z,100351.50
2022-10-20T21:56:45.060Z,100354.22
2022-10-20T21:59:19.919Z,100352.16
2022-10-20T22:01:48.026Z,100355.69
2022-10-20T22:04:14.887Z,100346.75
2022-10-20T22:06:41.452Z,100351.16
2022-10-20T22:09:08.862Z,100348.25
2022-10-20T22:11:39.497Z,100347.03
2022-10-20T22:14:06.540Z,100350.38
2022-10-20T22:16:36.567Z,100343.94
2022-10-20T22:19:23.206Z,100334.63
2022-10-20T22:21:51.934Z,100336.31
2022-10-20T22:24:19.282Z,100335.44
2022-10-20T22:26:46.115Z,100330.03
2022-10-20T22:29:13.190Z,100328.38
2022-10-20T22:31:40.978Z,100328.38
2022-10-20T22:34:08.345Z,100333.78
2022-10-20T22:36:34.793Z,100334.81
2022-10-20T22:39:01.476Z,100327.56
2022-10-20T22:41:27.965Z,100324.19
2022-10-20T22:43:54.371Z,100319.84
2022-10-20T22:46:21.199Z,100327.94
2022-10-20T22:48:47.675Z,100327.09
2022-10-20T22:51:14.386Z,100332.47
2022-10-20T22:53:41.102Z,100319.84
2022-10-20T22:56:18.211Z,100320.47
2022-10-20T22:58:46.212Z,100321.31
2022-10-20T23:01:16.633Z,100306.78
2022-10-20T23:03:43.534Z,100314.88
2022-10-20T23:06:15.690Z,100318.41
2022-10-20T23:08:45.486Z,100302.88
2022-10-20T23:11:12.864Z,100308.09
2022-10-20T23:13:39.493Z,100301.63
2022-10-20T23:16:06.482Z,100307.69
2022-10-20T23:18:32.943Z,100310.19
2022-10-20T23:20:59.491Z,100310.00
2022-10-20T23:23:26.175Z,100309.81
2022-10-20T23:25:52.932Z,100312.13
2022-10-20T23:28:19.850Z,100315.66
2022-10-20T23:30:46.584Z,100316.09
2022-10-20T23:33:13.319Z,100313.19
2022-10-20T23:35:39.855Z,100317.38
2022-10-20T23:38:08.205Z,100313.25
2022-10-20T23:40:35.083Z,100297.69
2022-10-20T23:43:01.442Z,100299.97
2022-10-20T23:45:27.756Z,100294.19
2022-10-20T23:47:54.218Z,100294.63
2022-10-20T23:50:23.258Z,100289.66
2022-10-20T23:52:49.586Z,100288.44
2022-10-20T23:55:16.057Z,100287.22
2022-10-20T23:57:42.382Z,100283.94
